Time;durP1;ratioP1;P1;durP2;ratioP2;P2;SDS_P1;SDS_P2;PMS_P1;PMS_P2;Temp;Humidity;BMP_temperature;BMP_pressure;BME280_temperature;BME280_humidity;BME280_pressure;Samples;Min_cycle;Max_cycle;Signal;HPM_P1;HPM_P2
2023/05/18 00:01:33;;;;;;;9.88;5.55;;;8.20;99.90;;;;;;5061772;28;20044;-73
2023/05/18 00:03:58;;;;;;;14.07;6.45;;;8.20;99.90;;;;;;5062910;28;20021;-73
2023/05/18 00:06:26;;;;;;;11.93;6.10;;;8.20;99.90;;;;;;5062673;28;20453;-74
2023/05/18 00:08:52;;;;;;;9.38;4.78;;;8.20;99.90;;;;;;5062342;28;20035;-73
2023/05/18 00:11:18;;;;;;;14.00;6.32;;;8.20;99.90;;;;;;5061924;28;20044;-74
2023/05/18 00:13:43;;;;;;;15.18;5.80;;;8.20;99.90;;;;;;5061208;28;20056;-73
2023/05/18 00:16:10;;;;;;;12.13;6.28;;;8.20;99.90;;;;;;5061501;28;20029;-72
2023/05/18 00:18:36;;;;;;;10.23;6.65;;;8.20;99.90;;;;;;5061255;28;20033;-72
2023/05/18 00:21:03;;;;;;;14.50;7.05;;;8.20;99.90;;;;;;5061587;28;20392;-72
2023/05/18 00:23:29;;;;;;;16.85;6.40;;;8.20;99.90;;;;;;5061627;28;20111;-73
2023/05/18 00:26:00;;;;;;;8.77;6.18;;;8.10;99.90;;;;;;5059978;28;20033;-73
2023/05/18 00:28:26;;;;;;;13.57;6.45;;;8.20;99.90;;;;;;5061635;28;20017;-73
2023/05/18 00:30:52;;;;;;;13.82;6.38;;;8.20;99.90;;;;;;5061741;28;20075;-73
2023/05/18 00:33:18;;;;;;;8.98;6.05;;;8.20;99.90;;;;;;5061280;28;20021;-72
2023/05/18 00:35:44;;;;;;;15.13;6.70;;;8.20;99.90;;;;;;5059978;28;20361;-73
2023/05/18 00:38:11;;;;;;;18.83;7.68;;;8.20;99.90;;;;;;5061997;28;20029;-72
2023/05/18 00:40:38;;;;;;;14.35;6.80;;;8.20;99.90;;;;;;5060187;28;20029;-72
2023/05/18 00:43:03;;;;;;;9.45;6.15;;;8.20;99.90;;;;;;5061345;28;20504;-72
2023/05/18 00:45:29;;;;;;;14.75;6.38;;;8.20;99.90;;;;;;5059659;28;20055;-72
2023/05/18 00:47:55;;;;;;;15.52;6.78;;;8.20;99.90;;;;;;5059269;28;20091;-73
2023/05/18 00:50:21;;;;;;;13.50;7.30;;;8.20;99.90;;;;;;5060349;28;20079;-73
2023/05/18 00:52:46;;;;;;;12.27;6.45;;;8.20;99.90;;;;;;5059915;28;20037;-72
2023/05/18 00:55:13;;;;;;;16.83;6.93;;;8.20;99.90;;;;;;5061513;28;20113;-72
2023/05/18 00:57:43;;;;;;;12.30;6.13;;;8.20;99.90;;;;;;5059118;28;20057;-72
2023/05/18 01:00:12;;;;;;;12.70;6.63;;;8.20;99.90;;;;;;5060970;28;20400;-72
2023/05/18 01:02:41;;;;;;;12.52;6.32;;;8.20;99.90;;;;;;5059709;28;20052;-72
2023/05/18 01:05:10;;;;;;;18.42;7.78;;;8.20;99.90;;;;;;5060964;28;20060;-72
2023/05/18 01:07:37;;;;;;;;;;;8.20;99.90;;;;;;5060964;28;20056;-74
2023/05/18 01:10:03;;;;;;;11.30;6.10;;;8.20;99.90;;;;;;5059648;28;19904;-72
2023/05/18 01:12:35;;;;;;;14.73;6.78;;;8.20;99.90;;;;;;5060576;28;20039;-72
2023/05/18 01:15:25;;;;;;;11.52;7.00;;;8.20;99.90;;;;;;5060911;28;20017;-72
2023/05/18 01:18:13;;;;;;;12.20;6.90;;;8.20;99.90;;;;;;5060817;28;20032;-73
2023/05/18 01:20:46;;;;;;;12.60;6.07;;;8.20;99.90;;;;;;5060188;28;20028;-73
2023/05/18 01:23:34;;;;;;;12.88;6.53;;;8.20;99.90;;;;;;5060524;28;20043;-72
2023/05/18 01:26:06;;;;;;;11.77;6.50;;;8.20;99.90;;;;;;5059492;28;20029;-72
2023/05/18 01:28:32;;;;;;;12.90;6.72;;;8.20;99.90;;;;;;5058622;28;20264;-72
2023/05/18 01:30:59;;;;;;;12.85;7.13;;;8.20;99.90;;;;;;5059604;28;20033;-73
2023/05/18 01:33:25;;;;;;;14.65;6.63;;;8.30;99.90;;;;;;5060160;28;20032;-72
2023/05/18 01:35:50;;;;;;;16.40;6.80;;;8.30;99.90;;;;;;5058954;28;20025;-72
2023/05/18 01:38:22;;;;;;;10.95;5.82;;;8.30;99.90;;;;;;5059537;28;20063;-73
2023/05/18 01:41:14;;;;;;;11.35;6.05;;;8.30;99.90;;;;;;5059412;28;20032;-73
2023/05/18 01:43:52;;;;;;;10.88;5.78;;;8.30;99.90;;;;;;5057011;28;20033;-72
2023/05/18 01:46:30;;;;;;;18.58;6.78;;;8.30;99.90;;;;;;5058551;28;20040;-72
2023/05/18 01:49:01;;;;;;;8.55;5.50;;;8.30;99.90;;;;;;5058165;28;20047;-72
2023/05/18 01:51:34;;;;;;;10.60;5.68;;;8.30;99.90;;;;;;5058124;28;20025;-73
2023/05/18 01:54:04;;;;;;;9.35;5.20;;;8.30;99.90;;;;;;5058458;28;20056;-72
2023/05/18 01:56:32;;;;;;;13.77;5.65;;;8.30;99.90;;;;;;5058910;28;20029;-72
2023/05/18 01:58:58;;;;;;;12.80;5.40;;;8.30;99.90;;;;;;5058559;28;20112;-72
2023/05/18 02:01:24;;;;;;;12.98;5.07;;;8.30;99.90;;;;;;5057822;28;20472;-72
2023/05/18 02:03:50;;;;;;;9.48;5.55;;;8.30;99.90;;;;;;5059269;28;20031;-72
2023/05/18 02:06:16;;;;;;;11.35;5.07;;;8.30;99.90;;;;;;5058235;28;20031;-72
2023/05/18 02:08:42;;;;;;;7.40;4.80;;;8.30;99.90;;;;;;5059298;28;20052;-72
2023/05/18 02:11:08;;;;;;;12.57;5.57;;;8.30;99.90;;;;;;5059437;28;20028;-73
2023/05/18 02:13:34;;;;;;;12.52;4.72;;;8.30;99.90;;;;;;5058409;28;20036;-72
2023/05/18 02:15:59;;;;;;;14.38;4.85;;;8.30;99.90;;;;;;5059140;28;20033;-72
2023/05/18 02:18:26;;;;;;;8.90;5.18;;;8.30;99.90;;;;;;5059688;28;20044;-72
2023/05/18 02:20:59;;;;;;;6.18;4.65;;;8.30;99.90;;;;;;5057373;28;20396;-72
2023/05/18 02:23:25;;;;;;;14.18;4.80;;;8.30;99.90;;;;;;5059547;28;20546;-73
2023/05/18 02:25:50;;;;;;;8.38;4.22;;;8.30;99.90;;;;;;5059553;28;20029;-72
2023/05/18 02:28:16;;;;;;;13.32;5.13;;;8.30;99.90;;;;;;5058070;28;20025;-73
2023/05/18 02:30:42;;;;;;;9.20;5.25;;;8.30;99.90;;;;;;5059023;28;20035;-72
2023/05/18 02:33:07;;;;;;;8.55;4.82;;;8.30;99.90;;;;;;5058788;28;20029;-72
2023/05/18 02:35:34;;;;;;;12.93;4.53;;;8.30;99.90;;;;;;5056005;28;20035;-72
2023/05/18 02:38:01;;;;;;;7.05;4.70;;;8.30;99.90;;;;;;5058214;28;20036;-73
2023/05/18 02:40:27;;;;;;;8.63;4.35;;;8.30;99.90;;;;;;5058691;28;20025;-72
2023/05/18 02:42:52;;;;;;;6.97;4.32;;;8.30;99.90;;;;;;5057127;28;20035;-72
2023/05/18 02:45:19;;;;;;;14.43;4.75;;;8.30;99.90;;;;;;5059483;28;20377;-73
2023/05/18 02:47:45;;;;;;;14.02;5.15;;;8.30;99.90;;;;;;5058378;28;20029;-73
2023/05/18 02:50:11;;;;;;;11.10;4.72;;;8.30;99.90;;;;;;5059055;28;20118;-74
2023/05/18 02:52:37;;;;;;;10.00;4.57;;;8.20;99.90;;;;;;5061246;28;20457;-73
2023/05/18 02:55:04;;;;;;;13.40;5.30;;;8.20;99.90;;;;;;5060758;28;20025;-73
2023/05/18 02:57:31;;;;;;;11.50;5.10;;;8.20;99.90;;;;;;5060352;28;20048;-73
2023/05/18 02:59:57;;;;;;;10.25;4.80;;;8.20;99.90;;;;;;5061150;28;20025;-73
2023/05/18 03:02:23;;;;;;;16.45;5.25;;;8.20;99.90;;;;;;5060331;28;20090;-73
2023/05/18 03:04:52;;;;;;;12.75;5.78;;;8.20;99.90;;;;;;5060031;28;20029;-72
2023/05/18 03:07:19;;;;;;;12.23;5.18;;;8.20;99.90;;;;;;5059990;28;20025;-73
2023/05/18 03:09:45;;;;;;;13.90;5.80;;;8.10;99.90;;;;;;5059926;28;20051;-72
2023/05/18 03:12:11;;;;;;;11.90;5.32;;;8.20;99.90;;;;;;5058599;28;20469;-73
2023/05/18 03:14:36;;;;;;;10.23;4.82;;;8.20;99.90;;;;;;5059976;28;20037;-74
2023/05/18 03:17:04;;;;;;;14.02;5.32;;;8.20;99.90;;;;;;5059092;28;20029;-73
2023/05/18 03:19:36;;;;;;;9.05;5.07;;;8.20;99.90;;;;;;5061539;28;20543;-72
2023/05/18 03:22:03;;;;;;;12.95;5.30;;;8.20;99.90;;;;;;5064084;28;20103;-72
2023/05/18 03:24:29;;;;;;;13.57;5.20;;;8.20;99.90;;;;;;5063866;28;20021;-73
2023/05/18 03:26:55;;;;;;;11.77;5.78;;;8.20;99.90;;;;;;5061822;28;20067;-73
2023/05/18 03:29:22;;;;;;;9.50;5.45;;;8.20;99.90;;;;;;5063257;28;20025;-73
2023/05/18 03:31:47;;;;;;;10.98;4.88;;;8.20;99.90;;;;;;5063437;28;20025;-72
2023/05/18 03:34:13;;;;;;;9.32;4.53;;;8.20;99.90;;;;;;5062540;28;20021;-72
2023/05/18 03:36:41;;;;;;;9.32;4.28;;;8.20;99.90;;;;;;5062238;28;20048;-74
2023/05/18 03:39:07;;;;;;;10.77;4.18;;;8.20;99.90;;;;;;5062409;28;20040;-72
2023/05/18 03:41:33;;;;;;;9.65;3.95;;;8.20;99.90;;;;;;5061633;28;20028;-72
2023/05/18 03:43:58;;;;;;;24.42;5.07;;;8.20;99.90;;;;;;5061020;28;20025;-73
2023/05/18 03:46:24;;;;;;;11.80;4.68;;;8.20;99.90;;;;;;5062356;28;20033;-72
2023/05/18 03:48:52;;;;;;;12.60;4.25;;;8.20;99.90;;;;;;5061295;28;20052;-72
2023/05/18 03:51:18;;;;;;;9.32;4.20;;;8.20;99.90;;;;;;5061122;28;20028;-72
2023/05/18 03:53:43;;;;;;;11.25;4.10;;;8.20;99.90;;;;;;5061011;28;20029;-72
2023/05/18 03:56:09;;;;;;;10.60;3.60;;;8.20;99.90;;;;;;5063271;28;20029;-72
2023/05/18 03:58:35;;;;;;;10.25;3.95;;;8.20;99.90;;;;;;5062232;28;20048;-72
2023/05/18 04:01:01;;;;;;;8.40;3.85;;;8.20;99.90;;;;;;5061979;28;20025;-72
2023/05/18 04:03:26;;;;;;;8.88;3.40;;;8.20;99.90;;;;;;5061712;28;20029;-74
2023/05/18 04:05:52;;;;;;;12.68;4.25;;;8.20;99.90;;;;;;5062027;28;20060;-73
2023/05/18 04:08:19;;;;;;;9.70;4.30;;;8.20;99.90;;;;;;5061666;28;20025;-73
2023/05/18 04:10:44;;;;;;;14.07;3.83;;;8.20;99.90;;;;;;5060553;28;20112;-73
2023/05/18 04:13:11;;;;;;;12.45;4.22;;;8.20;99.90;;;;;;5061347;28;20045;-72
2023/05/18 04:15:37;;;;;;;12.45;3.90;;;8.20;99.90;;;;;;5061561;28;20025;-72
2023/05/18 04:18:03;;;;;;;14.23;4.03;;;8.30;99.90;;;;;;5061653;28;20037;-73
2023/05/18 04:20:28;;;;;;;20.70;5.10;;;8.30;99.90;;;;;;5061509;28;20383;-73
2023/05/18 04:22:56;;;;;;;14.23;4.90;;;8.30;99.90;;;;;;5061457;28;20061;-73
2023/05/18 04:25:28;;;;;;;12.45;4.03;;;8.30;99.90;;;;;;5060112;28;20423;-73
2023/05/18 04:27:54;;;;;;;9.50;3.35;;;8.40;99.90;;;;;;5061266;28;20380;-73
2023/05/18 04:30:23;;;;;;;10.57;3.72;;;8.30;99.90;;;;;;5060698;28;20032;-72
2023/05/18 04:32:49;;;;;;;9.95;3.83;;;8.30;99.90;;;;;;5061628;28;20029;-72
2023/05/18 04:35:15;;;;;;;11.82;3.63;;;8.30;99.90;;;;;;5061295;28;20025;-73
2023/05/18 04:37:41;;;;;;;13.95;4.30;;;8.30;99.90;;;;;;5060663;28;20059;-73
2023/05/18 04:40:16;;;;;;;10.70;3.85;;;8.30;99.90;;;;;;5059932;28;20029;-72
2023/05/18 04:42:46;;;;;;;14.50;3.78;;;8.30;99.90;;;;;;5060975;28;20025;-73
2023/05/18 04:45:16;;;;;;;13.20;4.00;;;8.40;99.90;;;;;;5059375;28;20409;-73
2023/05/18 04:47:45;;;;;;;17.77;4.82;;;8.30;99.90;;;;;;5059324;28;20052;-73
2023/05/18 04:50:17;;;;;;;11.38;3.70;;;8.40;99.90;;;;;;5060420;28;20388;-73
2023/05/18 04:52:47;;;;;;;12.90;3.25;;;8.40;99.90;;;;;;5058960;28;20079;-74
2023/05/18 04:55:21;;;;;;;11.75;3.83;;;8.40;99.90;;;;;;5059541;28;20464;-73
2023/05/18 04:57:49;;;;;;;10.70;4.07;;;8.30;99.90;;;;;;5058999;28;20052;-73
2023/05/18 05:00:15;;;;;;;12.13;3.30;;;8.40;99.90;;;;;;5058524;28;20029;-73
2023/05/18 05:02:41;;;;;;;11.73;3.20;;;8.40;99.90;;;;;;5059922;28;20515;-75
2023/05/18 05:05:07;;;;;;;15.75;3.72;;;8.40;99.90;;;;;;5060861;28;20055;-76
2023/05/18 05:07:33;;;;;;;11.60;3.42;;;8.50;99.90;;;;;;5059370;28;20040;-75
2023/05/18 05:09:58;;;;;;;8.57;3.20;;;8.50;99.90;;;;;;5060336;28;20021;-73
2023/05/18 05:12:24;;;;;;;12.73;3.85;;;8.50;99.90;;;;;;5060336;28;20052;-73
2023/05/18 05:14:49;;;;;;;13.57;3.40;;;8.50;99.90;;;;;;5060148;28;20017;-72
2023/05/18 05:17:15;;;;;;;9.07;3.17;;;8.50;99.90;;;;;;5059556;28;20084;-72
2023/05/18 05:19:41;;;;;;;11.27;3.40;;;8.50;99.90;;;;;;5058889;28;20033;-72
2023/05/18 05:22:07;;;;;;;12.07;3.92;;;8.50;99.90;;;;;;5059074;28;20112;-72
2023/05/18 05:24:32;;;;;;;9.50;3.10;;;8.50;99.90;;;;;;5059352;28;20025;-72
2023/05/18 05:26:58;;;;;;;8.02;3.25;;;8.60;99.90;;;;;;5059450;28;20078;-73
2023/05/18 05:29:25;;;;;;;8.75;3.90;;;8.50;99.90;;;;;;5053133;28;20025;-61
2023/05/18 05:31:50;;;;;;;10.85;3.53;;;8.60;99.90;;;;;;5052927;28;20456;-61
2023/05/18 05:34:16;;;;;;;7.10;3.45;;;8.70;99.90;;;;;;5058067;28;20032;-72
2023/05/18 05:36:42;;;;;;;8.63;3.67;;;8.70;99.90;;;;;;5058981;28;20036;-70
2023/05/18 05:39:08;;;;;;;11.63;3.47;;;8.70;99.90;;;;;;5060480;28;20103;-72
2023/05/18 05:41:33;;;;;;;12.30;3.30;;;8.70;99.90;;;;;;5058796;28;20049;-73
2023/05/18 05:43:59;;;;;;;15.05;3.55;;;8.70;99.90;;;;;;5059438;28;20032;-73
2023/05/18 05:46:25;;;;;;;12.90;4.00;;;8.70;99.90;;;;;;5058285;28;20029;-74
2023/05/18 05:48:50;;;;;;;14.52;3.20;;;8.70;99.90;;;;;;5059794;28;20065;-75
2023/05/18 05:51:16;;;;;;;13.45;3.30;;;8.70;99.90;;;;;;5059880;28;20021;-75
2023/05/18 05:53:42;;;;;;;7.85;3.40;;;8.70;99.90;;;;;;5058495;28;20067;-75
2023/05/18 05:56:08;;;;;;;8.43;3.33;;;8.80;99.90;;;;;;5059722;28;20037;-74
2023/05/18 05:58:34;;;;;;;8.55;3.03;;;8.80;99.90;;;;;;5059419;28;20057;-75
2023/05/18 06:01:00;;;;;;;12.88;3.70;;;8.80;99.90;;;;;;5059187;28;20088;-75
2023/05/18 06:03:25;;;;;;;16.52;3.97;;;8.80;99.90;;;;;;5059890;28;20025;-74
2023/05/18 06:05:51;;;;;;;9.30;3.10;;;8.90;99.90;;;;;;5060168;28;20021;-74
2023/05/18 06:08:17;;;;;;;15.10;3.38;;;8.90;99.90;;;;;;5058039;28;20028;-74
2023/05/18 06:10:42;;;;;;;16.08;4.00;;;8.90;99.90;;;;;;5059155;28;20040;-74
2023/05/18 06:13:08;;;;;;;13.05;3.13;;;8.90;99.90;;;;;;5059286;28;20422;-74
2023/05/18 06:15:33;;;;;;;15.52;4.40;;;8.90;99.90;;;;;;5058995;28;20053;-74
2023/05/18 06:17:59;;;;;;;13.23;3.67;;;8.90;99.90;;;;;;5059093;28;20064;-74
2023/05/18 06:20:26;;;;;;;14.68;3.88;;;8.90;99.90;;;;;;5060155;28;20029;-74
2023/05/18 06:22:51;;;;;;;11.77;3.40;;;8.90;99.90;;;;;;5059799;28;20116;-74
2023/05/18 06:25:17;;;;;;;16.23;3.30;;;8.90;99.90;;;;;;5060663;28;20048;-75
2023/05/18 06:27:44;;;;;;;12.80;3.05;;;9.00;99.90;;;;;;5062196;28;20085;-74
2023/05/18 06:30:11;;;;;;;20.00;4.43;;;9.00;99.90;;;;;;5059720;28;20025;-75
2023/05/18 06:32:36;;;;;;;17.02;3.40;;;9.00;99.90;;;;;;5059671;28;20036;-74
2023/05/18 06:35:03;;;;;;;8.98;3.40;;;9.00;99.90;;;;;;5059252;28;20026;-75
2023/05/18 06:37:28;;;;;;;11.75;2.80;;;9.00;99.90;;;;;;5059456;28;20029;-74
2023/05/18 06:39:54;;;;;;;12.02;3.00;;;9.00;99.90;;;;;;5059926;28;20063;-74
2023/05/18 06:42:20;;;;;;;16.08;3.58;;;9.00;99.90;;;;;;5058965;28;20508;-74
2023/05/18 06:44:45;;;;;;;14.25;3.13;;;9.10;99.90;;;;;;5058011;28;20036;-74
